Time;durP1;ratioP1;P1;durP2;ratioP2;P2;SDS_P1;SDS_P2;PMS_P1;PMS_P2;Temp;Humidity;BMP_temperature;BMP_pressure;BME280_temperature;BME280_humidity;BME280_pressure;Samples;Min_cycle;Max_cycle;Signal;HPM_P1;HPM_P2
2023/08/25 00:00:33;;;;;;;7.22;5.55;;;;;;;18.70;100.00;100814.94;1032329;28;20047;-55
2023/08/25 00:01:22;;;;;;;7.18;6.47;;;;;;;18.50;100.00;100812.22;1036132;28;20046;-52
2023/08/25 00:02:02;;;;;;;10.43;5.80;;;;;;;18.51;100.00;100811.13;1033801;28;20072;-55
2023/08/25 00:02:54;;;;;;;5.75;5.22;;;;;;;18.72;100.00;100806.59;1031509;28;20038;-52
2023/08/25 00:03:46;;;;;;;8.30;6.13;;;;;;;18.48;100.00;100795.50;1031849;28;20111;-53
2023/08/25 00:04:42;;;;;;;7.03;6.35;;;;;;;18.43;100.00;100799.00;1032343;28;20046;-52
2023/08/25 00:05:43;;;;;;;12.70;7.38;;;;;;;18.58;100.00;100800.88;1031461;28;20093;-55
2023/08/25 00:06:17;;;;;;;8.40;6.15;;;;;;;18.54;100.00;100799.81;1027499;28;20051;-55
2023/08/25 00:06:51;;;;;;;6.57;5.93;;;;;;;18.40;100.00;100807.63;1027537;28;20087;-55
2023/08/25 00:09:09;;;;;;;6.15;5.60;;;;;;;18.41;100.00;100803.06;1040061;28;20136;-55
2023/08/25 00:10:22;;;;;;;6.05;5.53;;;;;;;18.59;100.00;100807.88;1033005;28;20058;-52
2023/08/25 00:11:03;;;;;;;5.15;4.75;;;;;;;18.37;100.00;100805.47;1031686;28;20042;-51
2023/08/25 00:11:43;;;;;;;5.75;4.90;;;;;;;18.34;100.00;100799.78;1032026;28;20050;-54
2023/08/25 00:12:33;;;;;;;6.45;5.70;;;;;;;18.40;100.00;100799.53;1028876;28;20453;-55
2023/08/25 00:13:35;;;;;;;6.10;5.50;;;;;;;18.33;100.00;100800.88;1025256;28;20059;-52
2023/08/25 00:14:53;;;;;;;7.45;5.07;;;;;;;18.28;100.00;100800.88;1034720;28;20472;-53
2023/08/25 00:16:02;;;;;;;9.45;5.28;;;;;;;18.31;100.00;100813.81;1035843;28;20149;-54
2023/08/25 00:17:03;;;;;;;11.13;5.00;;;;;;;18.40;100.00;100812.22;1023271;28;20461;-53
2023/08/25 00:17:46;;;;;;;9.55;6.22;;;;;;;18.33;100.00;100808.94;1027065;28;20520;-55
2023/08/25 00:18:33;;;;;;;5.88;5.28;;;;;;;18.33;100.00;100808.94;1032480;28;20039;-55
2023/08/25 00:19:28;;;;;;;6.07;5.45;;;;;;;18.02;100.00;100805.41;1036016;28;20053;-52
2023/08/25 00:20:38;;;;;;;;;;;;;;;;;;;;;
2023/08/25 00:22:22;;;;;;;5.90;5.40;;;;;;;18.26;100.00;100809.22;1039720;28;20623;-53
2023/08/25 00:23:03;;;;;;;8.63;6.55;;;;;;;18.31;100.00;100811.13;1031369;28;20050;-54
2023/08/25 00:23:45;;;;;;;12.00;5.93;;;;;;;18.34;100.00;100814.06;1029104;28;20147;-55
2023/08/25 00:24:29;;;;;;;8.25;7.35;;;;;;;18.09;100.00;100812.19;1025837;28;20043;-52
2023/08/25 00:25:23;;;;;;;7.10;5.78;;;;;;;18.18;100.00;100813.25;1037901;28;20034;-54
2023/08/25 00:26:15;;;;;;;7.43;6.75;;;;;;;17.95;100.00;100808.34;1037876;28;20515;-54
2023/08/25 00:27:09;;;;;;;6.82;6.22;;;;;;;17.83;100.00;100805.09;1027066;28;20051;-54
2023/08/25 00:28:01;;;;;;;6.25;5.65;;;;;;;18.08;100.00;100802.47;1035570;28;20046;-53
2023/08/25 00:28:43;;;;;;;6.95;6.32;;;;;;;17.94;100.00;100806.75;1037444;28;20799;-53
2023/08/25 00:29:30;;;;;;;9.43;6.53;;;;;;;17.96;100.00;100803.78;1041512;28;20056;-52
2023/08/25 00:30:26;;;;;;;6.95;6.35;;;;;;;17.87;100.00;100800.81;1040329;28;20037;-53
2023/08/25 00:31:37;;;;;;;8.00;6.82;;;;;;;17.81;100.00;100801.88;1035834;28;20050;-52
2023/08/25 00:32:19;;;;;;;10.85;5.90;;;;;;;17.97;100.00;100800.81;1023096;28;21053;-55
2023/08/25 00:33:07;;;;;;;8.48;6.13;;;;;;;18.26;100.00;100803.03;1027234;28;20043;-52
2023/08/25 00:33:53;;;;;;;9.75;5.85;;;;;;;18.33;100.00;100796.28;1031168;28;20031;-55
2023/08/25 00:34:43;;;;;;;;;;;;;;;18.32;100.00;100794.66;1032582;28;20035;-54
2023/08/25 00:36:21;;;;;;;7.45;6.72;;;;;;;18.08;100.00;100797.09;1034022;28;20046;-52
2023/08/25 00:37:46;;;;;;;6.20;5.60;;;;;;;17.93;100.00;100791.66;1045087;28;20079;-55
2023/08/25 00:38:39;;;;;;;7.30;6.60;;;;;;;18.17;100.00;100795.47;1033401;28;20415;-53
2023/08/25 00:39:41;;;;;;;6.38;5.78;;;;;;;18.07;100.00;100800.81;1028872;28;20043;-51
2023/08/25 00:40:25;;;;;;;6.22;5.72;;;;;;;17.92;100.00;100790.84;1030131;28;20525;-51
2023/08/25 00:41:22;;;;;;;6.88;6.28;;;;;;;17.71;100.00;100791.03;1027642;28;20469;-55
2023/08/25 00:42:12;;;;;;;6.13;5.60;;;;;;;17.69;100.00;100787.81;1030701;28;20570;-55
2023/08/25 00:43:14;;;;;;;9.25;7.32;;;;;;;17.89;100.00;100794.06;1026448;28;20498;-51
2023/08/25 00:44:00;;;;;;;6.80;6.15;;;;;;;17.89;100.00;100790.56;1024181;28;20148;-53
2023/08/25 00:46:41;;;;;;;6.80;5.75;;;;;;;17.96;100.00;100799.19;1032800;28;20512;-52
2023/08/25 00:47:39;;;;;;;7.82;7.05;;;;;;;18.00;100.00;100799.47;1038854;28;20415;-53
2023/08/25 00:48:44;;;;;;;10.32;6.20;;;;;;;17.92;100.00;100807.00;1033768;28;20050;-54
2023/08/25 00:49:36;;;;;;;7.28;6.35;;;;;;;17.89;100.00;100798.66;1033647;28;20058;-52
2023/08/25 00:50:41;;;;;;;7.35;6.13;;;;;;;17.84;100.00;100795.94;1035594;28;20567;-53
2023/08/25 00:51:27;;;;;;;6.60;6.00;;;;;;;17.91;100.00;100807.28;1032058;28;20066;-53
2023/08/25 00:52:20;;;;;;;7.47;6.50;;;;;;;18.00;100.00;100811.06;1029898;28;20512;-55
2023/08/25 00:53:12;;;;;;;10.82;7.90;;;;;;;18.14;100.00;100800.59;1036744;28;20137;-53
2023/08/25 00:54:14;;;;;;;8.02;7.22;;;;;;;18.15;100.00;100803.03;1027514;28;20055;-52
2023/08/25 00:55:03;;;;;;;9.38;7.60;;;;;;;18.13;100.00;100804.38;1037316;28;20100;-52
2023/08/25 00:55:48;;;;;;;11.88;7.55;;;;;;;18.25;100.00;100812.19;1033417;28;20180;-52
2023/08/25 00:56:53;;;;;;;11.57;8.77;;;;;;;18.18;100.00;100810.56;1020210;29;20062;-52
2023/08/25 00:57:48;;;;;;;9.25;8.35;;;;;;;18.21;100.00;100817.31;1028281;28;20175;-54
2023/08/25 00:58:31;;;;;;;;;;;;;;;17.97;100.00;100816.19;1028389;28;20608;-53
2023/08/25 00:59:22;;;;;;;11.13;8.55;;;;;;;18.05;100.00;100811.06;1029774;28;19926;-52
2023/08/25 01:00:17;;;;;;;10.65;8.35;;;;;;;17.98;100.00;100812.41;1028804;28;20047;-53
2023/08/25 01:01:05;;;;;;;9.65;8.48;;;;;;;17.99;100.00;100814.03;1038294;28;20189;-55
2023/08/25 01:02:07;;;;;;;35.40;8.25;;;;;;;17.84;100.00;100809.41;1041865;28;20057;-52
2023/08/25 01:02:49;;;;;;;9.05;7.13;;;;;;;17.80;100.00;100805.59;1041470;28;20045;-52
2023/08/25 01:03:39;;;;;;;15.63;8.15;;;;;;;17.78;100.00;100808.56;1040446;28;20053;-52
2023/08/25 01:04:22;;;;;;;11.73;8.55;;;;;;;18.06;100.00;100815.38;1035512;28;20081;-55
2023/08/25 01:05:21;;;;;;;13.82;10.35;;;;;;;18.19;100.00;100809.50;1030394;28;20039;-54
2023/08/25 01:06:11;;;;;;;10.48;9.00;;;;;;;18.12;100.00;100808.13;1037228;28;20484;-51
2023/08/25 01:07:04;;;;;;;10.35;9.35;;;;;;;18.26;100.00;100803.03;1029709;28;20051;-52
2023/08/25 01:07:43;;;;;;;9.82;8.93;;;;;;;18.31;100.00;100805.72;1045838;28;20048;-55
2023/08/25 01:08:22;;;;;;;10.57;9.43;;;;;;;18.36;100.00;100803.84;1044132;28;20044;-55
2023/08/25 01:09:05;;;;;;;11.48;10.27;;;;;;;18.33;100.00;100812.47;1040024;28;20512;-55
2023/08/25 01:09:41;;;;;;;13.65;8.75;;;;;;;18.18;100.00;100812.47;1037952;28;20046;-54
2023/08/25 01:10:50;;;;;;;9.80;8.90;;;;;;;18.29;100.00;100810.56;1033953;28;20539;-55
2023/08/25 01:12:04;;;;;;;9.80;8.90;;;;;;;18.21;100.00;100817.31;1038568;28;20125;-52
2023/08/25 01:12:42;;;;;;;11.88;7.70;;;;;;;18.23;100.00;100810.56;1044013;28;20136;-55
2023/08/25 01:13:59;;;;;;;10.32;9.13;;;;;;;18.23;100.00;100807.88;1034692;28;20496;-54
2023/08/25 01:14:56;;;;;;;12.52;9.88;;;;;;;18.13;100.00;100813.25;1043439;28;20056;-53
2023/08/25 01:15:55;;;;;;;10.88;9.55;;;;;;;18.29;100.00;100814.06;1043095;28;20045;-54
2023/08/25 01:17:42;;;;;;;10.73;9.10;;;;;;;18.04;100.00;100822.94;1039792;28;20419;-50
2023/08/25 01:18:37;;;;;;;9.70;8.70;;;;;;;18.03;100.00;100815.91;1036052;28;20060;-56
2023/08/25 01:19:45;;;;;;;14.68;9.20;;;;;;;18.02;100.00;100819.69;1028632;28;20138;-55
2023/08/25 01:20:21;;;;;;;13.02;10.13;;;;;;;18.14;100.00;100817.56;1029733;28;20380;-54
2023/08/25 01:21:27;;;;;;;13.10;10.60;;;;;;;18.06;100.00;100814.56;1037189;28;20046;-56
2023/08/25 01:22:15;;;;;;;11.48;9.52;;;;;;;18.20;100.00;100819.19;1033620;28;20505;-55
2023/08/25 01:23:14;;;;;;;10.95;9.85;;;;;;;18.08;100.00;100824.03;1042307;28;20554;-55
2023/08/25 01:24:13;;;;;;;13.90;9.85;;;;;;;18.11;100.00;100818.13;1044138;28;20041;-56
2023/08/25 01:24:54;;;;;;;13.48;11.45;;;;;;;18.22;100.00;100821.63;1038640;28;20079;-54
2023/08/25 01:26:01;;;;;;;10.65;9.60;;;;;;;18.12;100.00;100819.72;1039858;28;20046;-57
2023/08/25 01:26:43;;;;;;;13.40;11.07;;;;;;;18.15;100.00;100824.59;1040637;28;20487;-53
2023/08/25 01:27:40;;;;;;;11.73;8.93;;;;;;;18.00;100.00;100821.84;1043624;28;20060;-53
2023/08/25 01:28:41;;;;;;;9.25;8.30;;;;;;;17.97;100.00;100821.56;1046389;28;20144;-53
2023/08/25 01:29:27;;;;;;;9.90;8.55;;;;;;;18.08;100.00;100815.94;1042983;28;20037;-53
2023/08/25 01:30:16;;;;;;;12.00;10.80;;;;;;;18.17;100.00;100814.34;1034780;28;20050;-53
2023/08/25 01:30:54;;;;;;;12.68;11.40;;;;;;;18.18;100.00;100818.66;1036287;28;20045;-53
2023/08/25 01:31:38;;;;;;;10.77;9.77;;;;;;;18.18;100.00;100818.66;1036052;28;20057;-56
2023/08/25 01:32:24;;;;;;;11.43;9.93;;;;;;;18.11;100.00;100812.72;1028637;28;20185;-53
2023/08/25 01:33:05;;;;;;;11.82;10.68;;;;;;;18.24;100.00;100814.06;1036536;28;20559;-54
2023/08/25 01:33:56;;;;;;;11.45;10.35;;;;;;;18.21;100.00;100817.31;1040325;28;20041;-53
2023/08/25 01:34:38;;;;;;;12.45;11.35;;;;;;;18.15;100.00;100807.59;1041886;28;20128;-56
2023/08/25 01:35:17;;;;;;;13.35;11.95;;;;;;;18.15;100.00;100811.09;1035219;28;20128;-56
2023/08/25 01:36:26;;;;;;;11.25;10.20;;;;;;;18.13;100.00;100815.16;1033306;28;20083;-56
2023/08/25 01:37:37;;;;;;;;;;;;;;;;;;;;;
2023/08/25 01:38:31;;;;;;;16.38;11.23;;;;;;;17.82;100.00;100815.06;1038178;28;20503;-55
2023/08/25 01:39:36;;;;;;;10.68;9.60;;;;;;;18.05;100.00;100812.94;1048644;28;20043;-52
2023/08/25 01:41:03;;;;;;;15.32;9.88;;;;;;;17.86;100.00;100809.97;1040381;28;20133;-52
2023/08/25 01:42:02;;;;;;;18.15;11.88;;;;;;;17.81;100.00;100801.88;1037215;28;20571;-55
2023/08/25 01:43:00;;;;;;;12.98;10.50;;;;;;;17.89;100.00;100814.81;1033527;28;20054;-53
2023/08/25 01:43:59;;;;;;;14.73;9.93;;;;;;;17.81;100.00;100807.25;1032963;28;20046;-55
2023/08/25 01:44:33;;;;;;;14.57;8.98;;;;;;;17.68;100.00;100807.72;1030606;28;20068;-52
2023/08/25 01:45:14;;;;;;;10.15;9.32;;;;;;;17.81;100.00;100808.06;1035222;28;20485;-58
2023/08/25 01:45:59;;;;;;;14.55;11.52;;;;;;;17.99;100.00;100809.44;1039591;28;20304;-53
2023/08/25 01:47:06;;;;;;;12.60;10.68;;;;;;;17.87;100.00;100807.00;1045418;28;20048;-55
2023/08/25 01:47:50;;;;;;;10.55;9.45;;;;;;;17.82;100.00;100801.59;1038518;28;20045;-50
2023/08/25 01:48:30;;;;;;;11.68;10.38;;;;;;;17.83;100.00;100799.72;1035239;28;20046;-55
2023/08/25 01:49:20;;;;;;;11.90;10.10;;;;;;;17.92;100.00;100792.72;1026837;28;20050;-49
2023/08/25 01:49:59;;;;;;;13.27;11.23;;;;;;;17.98;100.00;100796.22;1028399;28;20402;-55
2023/08/25 01:50:55;;;;;;;16.20;10.63;;;;;;;17.92;100.00;100792.72;1034665;28;20397;-55
2023/08/25 01:51:32;;;;;;;13.23;9.68;;;;;;;17.79;100.00;100794.03;1037478;28;20081;-55
2023/08/25 01:52:15;;;;;;;11.57;10.38;;;;;;;17.75;100.00;100792.13;1034893;28;20046;-54
2023/08/25 01:53:03;;;;;;;10.20;9.23;;;;;;;17.78;100.00;100796.97;1035488;28;20038;-52
2023/08/25 01:54:07;;;;;;;11.05;9.50;;;;;;;17.65;100.00;100792.06;1039619;28;20144;-55
2023/08/25 01:54:53;;;;;;;10.30;8.68;;;;;;;17.61;100.00;100795.28;1038248;28;20050;-54
2023/08/25 01:55:38;;;;;;;11.77;10.43;;;;;;;17.58;100.00;100792.31;1035696;28;20100;-53
2023/08/25 01:56:23;;;;;;;10.57;9.52;;;;;;;17.64;100.00;100785.88;1037654;28;20451;-54
2023/08/25 01:57:02;;;;;;;10.75;9.65;;;;;;;17.70;100.00;100790.22;1038302;28;20532;-55
2023/08/25 01:57:39;;;;;;;15.20;11.38;;;;;;;17.87;100.00;100792.72;1048404;28;20040;-55
2023/08/25 01:58:19;;;;;;;12.88;11.55;;;;;;;17.92;100.00;100795.41;1043449;28;20044;-55
2023/08/25 01:58:57;;;;;;;13.40;11.90;;;;;;;17.86;100.00;100797.28;1042166;28;20049;-53
2023/08/25 01:59:46;;;;;;;17.30;11.80;;;;;;;17.90;100.00;100800.28;1040710;28;20053;-53
2023/08/25 02:01:01;;;;;;;13.45;12.10;;;;;;;17.88;100.00;100797.03;1036150;28;20042;-53
2023/08/25 02:01:46;;;;;;;14.82;12.55;;;;;;;17.87;100.00;100790.84;1036911;28;20060;-52
2023/08/25 02:02:40;;;;;;;21.98;12.65;;;;;;;17.98;100.00;100797.03;1039586;28;20052;-54
2023/08/25 02:03:24;;;;;;;16.83;13.23;;;;;;;18.02;100.00;100797.31;1038042;28;20053;-55
2023/08/25 02:04:11;;;;;;;16.77;12.77;;;;;;;17.92;100.00;100798.13;1032499;28;20046;-55
2023/08/25 02:04:53;;;;;;;14.32;12.18;;;;;;;17.90;100.00;100794.88;1032035;28;20042;-53
2023/08/25 02:05:41;;;;;;;13.50;11.95;;;;;;;17.92;100.00;100798.13;1033788;28;20045;-55
2023/08/25 02:06:35;;;;;;;13.73;12.32;;;;;;;17.95;100.00;100796.78;1027886;28;20050;-51
2023/08/25 02:07:31;;;;;;;13.90;11.77;;;;;;;17.87;100.00;100795.41;1028550;28;20046;-55
2023/08/25 02:08:26;;;;;;;15.73;10.60;;;;;;;17.78;100.00;100795.09;1032463;28;20412;-55
2023/08/25 02:09:03;;;;;;;13.02;10.18;;;;;;;17.75;100.00;100797.50;1033005;28;20042;-55
2023/08/25 02:09:56;;;;;;;13.52;11.02;;;;;;;17.71;100.00;100797.25;1030199;28;20046;-52
2023/08/25 02:11:09;;;;;;;13.98;11.23;;;;;;;17.78;100.00;100800.47;1024911;28;20095;-55
2023/08/25 02:12:03;;;;;;;14.18;12.18;;;;;;;17.88;100.00;100805.13;1031989;28;20050;-52
2023/08/25 02:12:54;;;;;;;13.80;12.45;;;;;;;17.99;100.00;100803.25;1035815;28;20794;-55
2023/08/25 02:13:31;;;;;;;18.17;14.65;;;;;;;18.08;100.00;100801.63;1035394;28;20551;-53
2023/08/25 02:14:03;;;;;;;15.55;13.95;;;;;;;18.13;100.00;100799.78;1039295;28;20483;-52
2023/08/25 02:14:34;;;;;;;14.32;12.88;;;;;;;18.06;100.00;100804.59;1039311;28;20049;-53
2023/08/25 02:15:07;;;;;;;14.10;12.88;;;;;;;18.03;100.00;100809.72;1035864;28;20037;-52
2023/08/25 02:15:48;;;;;;;16.17;13.70;;;;;;;18.04;100.00;100803.25;1035222;28;20056;-53
2023/08/25 02:16:19;;;;;;;12.27;11.10;;;;;;;17.85;100.00;100800.25;1033139;28;20042;-52
2023/08/25 02:16:51;;;;;;;13.07;11.70;;;;;;;17.93;100.00;100805.13;1037255;28;20049;-52
2023/08/25 02:17:23;;;;;;;12.75;11.50;;;;;;;17.71;100.00;100796.44;1036792;28;20165;-52
2023/08/25 02:17:55;;;;;;;14.38;13.02;;;;;;;17.75;100.00;100794.81;1037312;28;20109;-53
2023/08/25 02:18:27;;;;;;;14.13;11.30;;;;;;;17.90;100.00;100794.88;1035103;28;20484;-52
2023/08/25 02:18:58;;;;;;;14.75;11.32;;;;;;;17.90;100.00;100790.28;1031615;28;20967;-52
2023/08/25 02:19:30;;;;;;;13.00;11.45;;;;;;;17.94;100.00;100790.56;1031593;28;20137;-53
2023/08/25 02:20:04;;;;;;;15.13;13.38;;;;;;;17.92;100.00;100792.72;1027145;28;20842;-50
2023/08/25 02:20:38;;;;;;;14.55;13.02;;;;;;;17.98;100.00;100786.25;1031530;28;20051;-52
2023/08/25 02:21:10;;;;;;;17.17;14.52;;;;;;;18.07;100.00;100784.66;1036574;28;20085;-51
2023/08/25 02:21:42;;;;;;;17.25;15.52;;;;;;;18.17;100.00;100790.06;1040734;28;20411;-52
2023/08/25 02:22:13;;;;;;;15.52;13.93;;;;;;;18.13;100.00;100786.31;1043867;28;20037;-52
2023/08/25 02:22:45;;;;;;;14.38;12.80;;;;;;;18.12;100.00;100789.25;1044151;28;20574;-55
2023/08/25 02:23:16;;;;;;;14.35;12.65;;;;;;;18.03;100.00;100788.97;1039127;28;20064;-54
2023/08/25 02:23:49;;;;;;;14.13;12.65;;;;;;;18.11;100.00;100791.16;1039358;28;20073;-54
2023/08/25 02:24:22;;;;;;;15.02;13.45;;;;;;;18.07;100.00;100783.84;1039691;28;20046;-55
2023/08/25 02:24:55;;;;;;;18.88;14.77;;;;;;;18.15;100.00;100786.84;1033264;28;20090;-54
2023/08/25 02:25:26;;;;;;;21.23;14.95;;;;;;;18.22;100.00;100782.00;1035277;28;20049;-52
2023/08/25 02:25:58;;;;;;;15.80;13.93;;;;;;;18.23;100.00;100788.19;1035996;28;20049;-53
2023/08/25 02:26:30;;;;;;;15.80;14.18;;;;;;;18.25;100.00;100786.03;1039767;28;20041;-53
2023/08/25 02:27:02;;;;;;;18.80;15.38;;;;;;;18.20;100.00;100784.16;1039241;28;20547;-54
2023/08/25 02:27:33;;;;;;;16.83;14.63;;;;;;;18.22;100.00;100787.38;1039425;28;20049;-55
2023/08/25 02:28:05;;;;;;;15.80;14.25;;;;;;;18.09;100.00;100785.22;1035427;28;20129;-53
2023/08/25 02:28:37;;;;;;;15.30;13.55;;;;;;;18.12;100.00;100782.00;1031603;28;20050;-50
2023/08/25 02:29:09;;;;;;;15.77;14.18;;;;;;;18.20;100.00;100783.34;1035254;28;20058;-51
2023/08/25 02:29:42;;;;;;;18.10;15.55;;;;;;;18.25;100.00;100786.03;1036529;28;20111;-54
2023/08/25 02:30:16;;;;;;;19.70;15.38;;;;;;;18.17;100.00;100784.69;1037273;28;20510;-50
2023/08/25 02:30:47;;;;;;;16.50;14.80;;;;;;;18.25;100.00;100790.63;1039308;28;20048;-51
2023/08/25 02:31:21;;;;;;;14.93;13.43;;;;;;;18.27;100.00;100777.69;1035922;28;20038;-52
2023/08/25 02:31:52;;;;;;;16.10;14.27;;;;;;;18.38;100.00;100774.72;1033693;28;20184;-52
2023/08/25 02:32:25;;;;;;;17.13;15.25;;;;;;;18.38;100.00;100779.31;1035020;28;20038;-55
2023/08/25 02:32:59;;;;;;;17.30;15.48;;;;;;;18.41;100.00;100771.50;1027570;28;20043;-55
2023/08/25 02:33:30;;;;;;;19.50;16.33;;;;;;;18.45;100.00;100779.84;1036381;28;20053;-55
2023/08/25 02:34:02;;;;;;;18.02;16.23;;;;;;;18.41;100.00;100773.38;1034530;28;20540;-55
2023/08/25 02:34:33;;;;;;;18.10;15.07;;;;;;;18.43;100.00;100777.44;1035556;28;20260;-55
2023/08/25 02:35:05;;;;;;;18.63;16.90;;;;;;;18.48;100.00;100773.91;1035657;28;20356;-51
2023/08/25 02:35:38;;;;;;;23.45;16.92;;;;;;;18.48;100.00;100771.22;1035624;28;20041;-52
2023/08/25 02:36:10;;;;;;;17.00;15.18;;;;;;;18.56;100.00;100776.06;1035147;28;20042;-51
2023/08/25 02:36:42;;;;;;;23.27;16.75;;;;;;;18.51;100.00;100770.66;1036151;28;20146;-53
2023/08/25 02:37:13;;;;;;;18.60;16.48;;;;;;;18.55;100.00;100769.03;1039069;28;20037;-54
2023/08/25 02:37:57;;;;;;;16.70;15.05;;;;;;;18.58;100.00;100782.00;1039391;28;20064;-54
2023/08/25 02:38:29;;;;;;;18.15;13.80;;;;;;;18.61;100.00;100776.06;1039253;28;20047;-55
2023/08/25 02:39:01;;;;;;;18.73;15.35;;;;;;;18.53;100.00;100771.22;1039178;28;20043;-55
2023/08/25 02:39:32;;;;;;;13.85;12.45;;;;;;;18.58;100.00;100773.91;1039797;28;20046;-55
2023/08/25 02:40:04;;;;;;;17.40;15.50;;;;;;;18.53;100.00;100776.59;1035391;28;20088;-55
2023/08/25 02:40:39;;;;;;;17.35;13.68;;;;;;;18.51;100.00;100762.56;1039379;28;20041;-55
2023/08/25 02:41:11;;;;;;;16.10;14.60;;;;;;;18.52;100.00;100769.59;1035077;28;20136;-55
2023/08/25 02:41:42;;;;;;;16.38;14.75;;;;;;;18.60;100.00;100773.63;1036126;28;20053;-52
2023/08/25 02:42:14;;;;;;;17.67;15.70;;;;;;;18.57;100.00;100776.88;1034874;28;20464;-51
2023/08/25 02:42:46;;;;;;;16.13;14.52;;;;;;;18.47;100.00;100764.19;1031961;28;20512;-52
2023/08/25 02:43:17;;;;;;;16.63;14.93;;;;;;;18.48;100.00;100773.91;1035402;28;20393;-52
2023/08/25 02:43:49;;;;;;;15.63;14.05;;;;;;;18.51;100.00;100771.47;1035637;28;20112;-52
2023/08/25 02:44:21;;;;;;;16.00;14.50;;;;;;;18.57;100.00;100772.28;1039707;28;20042;-52
2023/08/25 02:44:52;;;;;;;18.08;14.98;;;;;;;18.54;100.00;100770.13;1043729;28;20518;-51
2023/08/25 02:45:25;;;;;;;17.33;15.63;;;;;;;18.56;100.00;100777.94;1043808;28;20080;-52
2023/08/25 02:45:59;;;;;;;17.55;15.20;;;;;;;18.61;100.00;100775.25;1039096;28;20042;-52
2023/08/25 02:46:31;;;;;;;16.35;14.75;;;;;;;18.57;100.00;100764.19;1034811;28;20521;-52
2023/08/25 02:47:03;;;;;;;17.65;13.95;;;;;;;18.46;100.00;100765.28;1031369;28;20046;-52
2023/08/25 02:47:35;;;;;;;19.13;15.73;;;;;;;18.58;100.00;100776.59;1027407;28;20493;-53
2023/08/25 02:48:07;;;;;;;17.13;15.43;;;;;;;18.63;100.00;100775.84;1031325;28;20472;-52
2023/08/25 02:48:38;;;;;;;17.17;15.43;;;;;;;18.63;100.00;100781.22;1036095;28;20120;-52
2023/08/25 02:49:10;;;;;;;19.98;16.25;;;;;;;18.62;100.00;100766.06;1039190;28;20045;-55
2023/08/25 02:49:42;;;;;;;16.17;14.63;;;;;;;18.33;100.00;100771.19;1035065;28;20338;-55
2023/08/25 02:50:14;;;;;;;17.50;15.77;;;;;;;18.19;100.00;100771.75;1031409;28;20128;-55
2023/08/25 02:50:45;;;;;;;16.50;14.82;;;;;;;18.29;100.00;100770.13;1027319;28;20053;-55
2023/08/25 02:51:17;;;;;;;16.52;13.43;;;;;;;18.38;100.00;100771.22;1027319;28;20569;-55
2023/08/25 02:51:49;;;;;;;16.10;14.60;;;;;;;18.49;100.00;100775.53;1032053;28;20140;-55
2023/08/25 02:52:22;;;;;;;15.40;13.75;;;;;;;18.45;100.00;100769.06;1031479;28;20046;-55
2023/08/25 02:52:54;;;;;;;16.88;15.20;;;;;;;18.44;100.00;100775.53;1035849;28;20057;-55
2023/08/25 02:53:25;;;;;;;15.35;13.82;;;;;;;18.40;100.00;100771.75;1035475;28;20125;-52
2023/08/25 02:53:57;;;;;;;15.50;13.90;;;;;;;18.44;100.00;100767.44;1031009;28;20563;-51
2023/08/25 02:54:29;;;;;;;16.27;14.52;;;;;;;18.49;100.00;100770.13;1035393;28;20428;-52
2023/08/25 02:55:00;;;;;;;16.23;14.45;;;;;;;18.43;100.00;100768.53;1031658;28;20050;-51
2023/08/25 02:55:32;;;;;;;15.68;13.98;;;;;;;18.51;100.00;100773.38;1035444;28;20431;-55
2023/08/25 02:56:04;;;;;;;15.55;14.05;;;;;;;18.46;100.00;100770.69;1035161;28;20132;-52
2023/08/25 02:56:36;;;;;;;15.98;13.77;;;;;;;18.40;100.00;100769.88;1036052;28;20108;-52
2023/08/25 02:57:07;;;;;;;17.50;14.43;;;;;;;18.34;100.00;100764.72;1038779;28;20048;-52
2023/08/25 02:57:39;;;;;;;14.13;12.80;;;;;;;18.38;100.00;100768.53;1039884;28;20052;-52
2023/08/25 02:58:11;;;;;;;16.20;13.13;;;;;;;18.40;100.00;100760.97;1039315;28;20076;-52
2023/08/25 02:58:42;;;;;;;16.20;14.00;;;;;;;18.47;100.00;100769.59;1039085;28;20041;-55
2023/08/25 02:59:16;;;;;;;18.35;14.85;;;;;;;18.52;100.00;100767.69;1038888;28;20086;-55
2023/08/25 02:59:47;;;;;;;18.27;16.13;;;;;;;18.52;100.00;100758.81;1039582;28;20052;-55
2023/08/25 03:00:23;;;;;;;15.13;13.68;;;;;;;18.48;100.00;100763.94;1032590;28;20176;-54
2023/08/25 03:00:55;;;;;;;16.98;15.18;;;;;;;18.55;100.00;100766.34;1031216;28;20590;-55
2023/08/25 03:01:27;;;;;;;16.15;14.55;;;;;;;18.52;100.00;100756.09;1030766;28;20145;-55
2023/08/25 03:01:59;;;;;;;14.50;13.10;;;;;;;18.52;100.00;100764.19;1034908;28;20061;-55
2023/08/25 03:02:32;;;;;;;15.95;14.43;;;;;;;18.37;100.00;100761.53;1033860;28;20173;-55
2023/08/25 03:03:04;;;;;;;16.30;13.45;;;;;;;18.40;100.00;100761.78;1040565;28;20440;-54
2023/08/25 03:03:36;;;;;;;18.95;15.50;;;;;;;18.39;100.00;100754.78;1040066;28;20435;-52
2023/08/25 03:04:09;;;;;;;17.33;15.38;;;;;;;18.31;100.00;100759.88;1041522;28;20049;-52
2023/08/25 03:04:41;;;;;;;15.40;14.00;;;;;;;18.28;100.00;100752.31;1039645;28;20040;-52
2023/08/25 03:05:13;;;;;;;13.27;12.00;;;;;;;18.23;100.00;100756.66;1039771;28;20136;-52
2023/08/25 03:05:45;;;;;;;14.82;13.38;;;;;;;18.29;100.00;100753.94;1039635;28;20128;-52
2023/08/25 03:06:17;;;;;;;14.15;12.82;;;;;;;18.30;100.00;100752.88;1039603;28;20091;-55
2023/08/25 03:06:49;;;;;;;15.10;12.52;;;;;;;18.40;100.00;100751.00;1043664;28;20041;-55
2023/08/25 03:07:21;;;;;;;14.30;13.00;;;;;;;18.37;100.00;100756.94;1047772;28;20040;-55
2023/08/25 03:07:54;;;;;;;15.05;13.43;;;;;;;18.36;100.00;100751.81;1047298;28;20036;-55
2023/08/25 03:08:27;;;;;;;16.02;13.73;;;;;;;18.36;100.00;100752.63;1043317;28;20146;-55
2023/08/25 03:09:00;;;;;;;14.88;13.38;;;;;;;18.21;100.00;100748.03;1039561;28;20132;-53
2023/08/25 03:09:32;;;;;;;16.13;14.52;;;;;;;18.15;100.00;100743.72;1037721;28;20030;-52
2023/08/25 03:10:04;;;;;;;15.70;14.20;;;;;;;18.22;100.00;100744.25;1043966;28;20067;-52
2023/08/25 03:10:36;;;;;;;15.75;14.32;;;;;;;18.27;100.00;100750.72;1043398;28;20060;-52
2023/08/25 03:11:08;;;;;;;16.08;14.50;;;;;;;18.26;100.00;100741.81;1039162;28;20092;-51
2023/08/25 03:11:39;;;;;;;16.83;14.40;;;;;;;18.30;100.00;100744.78;1043111;28;20098;-51
2023/08/25 03:12:12;;;;;;;16.30;14.90;;;;;;;18.29;100.00;100745.84;1039002;28;20055;-51
2023/08/25 03:12:44;;;;;;;16.42;14.75;;;;;;;18.20;100.00;100741.00;1035665;28;20092;-51
2023/08/25 03:13:17;;;;;;;16.27;14.77;;;;;;;18.13;100.00;100742.34;1035691;28;20049;-53
2023/08/25 03:14:00;;;;;;;15.05;13.45;;;;;;;18.08;100.00;100732.38;1033069;28;20519;-50
2023/08/25 03:14:31;;;;;;;17.42;15.55;;;;;;;18.14;100.00;100736.69;1035168;28;20082;-52
2023/08/25 03:15:03;;;;;;;16.88;15.15;;;;;;;18.20;100.00;100738.31;1035671;28;20049;-52
2023/08/25 03:15:35;;;;;;;18.33;14.65;;;;;;;18.23;100.00;100739.66;1041677;28;20045;-51
2023/08/25 03:16:07;;;;;;;15.48;13.00;;;;;;;18.33;100.00;100744.22;1042890;28;20064;-52
2023/08/25 03:16:39;;;;;;;15.50;13.85;;;;;;;18.28;100.00;100741.53;1043349;28;20072;-55
2023/08/25 03:17:11;;;;;;;16.08;14.45;;;;;;;18.27;100.00;100734.53;1039103;28;20167;-55
2023/08/25 03:17:42;;;;;;;15.77;14.27;;;;;;;18.35;100.00;100742.06;1035383;28;20058;-54
2023/08/25 03:18:14;;;;;;;15.65;13.85;;;;;;;18.40;100.00;100739.41;1035735;28;20050;-55
2023/08/25 03:18:46;;;;;;;16.73;14.98;;;;;;;18.34;100.00;100746.66;1039739;28;20052;-54
2023/08/25 03:19:18;;;;;;;17.15;15.38;;;;;;;18.35;100.00;100734.81;1039694;28;20052;-52
2023/08/25 03:19:52;;;;;;;17.75;14.13;;;;;;;18.35;100.00;100739.38;1043626;28;20049;-52
2023/08/25 03:20:24;;;;;;;16.23;14.63;;;;;;;18.33;100.00;100736.94;1038607;28;20091;-52
2023/08/25 03:20:56;;;;;;;16.77;15.18;;;;;;;18.36;100.00;100741.03;1036044;28;20038;-51